sensor_id;sensor_type;location;lat;lon;timestamp;P1;durP1;ratioP1;P2;durP2;ratioP2
39102;SDS011;24847;48.218;16.414;2023-02-28T00:03:10;7.68;;;5.03;;
39102;SDS011;24847;48.218;16.414;2023-02-28T00:08:13;8.80;;;6.13;;
39102;SDS011;24847;48.218;16.414;2023-02-28T00:13:16;8.38;;;5.70;;
39102;SDS011;24847;48.218;16.414;2023-02-28T00:18:19;10.43;;;6.07;;
39102;SDS011;24847;48.218;16.414;2023-02-28T00:23:21;8.65;;;5.70;;
39102;SDS011;24847;48.218;16.414;2023-02-28T00:28:24;8.30;;;5.55;;
39102;SDS011;24847;48.218;16.414;2023-02-28T00:33:27;9.85;;;6.00;;
39102;SDS011;24847;48.218;16.414;2023-02-28T00:38:30;7.82;;;5.53;;
39102;SDS011;24847;48.218;16.414;2023-02-28T00:43:34;10.00;;;6.00;;
39102;SDS011;24847;48.218;16.414;2023-02-28T00:48:39;8.15;;;6.28;;
39102;SDS011;24847;48.218;16.414;2023-02-28T00:53:41;10.57;;;6.32;;
39102;SDS011;24847;48.218;16.414;2023-02-28T00:58:46;10.07;;;6.68;;
39102;SDS011;24847;48.218;16.414;2023-02-28T01:03:49;10.73;;;6.60;;
39102;SDS011;24847;48.218;16.414;2023-02-28T01:08:51;8.57;;;6.07;;
39102;SDS011;24847;48.218;16.414;2023-02-28T01:13:55;8.45;;;5.93;;
39102;SDS011;24847;48.218;16.414;2023-02-28T01:18:57;9.80;;;6.75;;
39102;SDS011;24847;48.218;16.414;2023-02-28T01:23:59;8.93;;;6.20;;
39102;SDS011;24847;48.218;16.414;2023-02-28T01:29:04;9.25;;;5.97;;
39102;SDS011;24847;48.218;16.414;2023-02-28T01:34:06;10.60;;;6.72;;
39102;SDS011;24847;48.218;16.414;2023-02-28T01:39:08;10.80;;;6.88;;
39102;SDS011;24847;48.218;16.414;2023-02-28T01:49:59;9.07;;;6.57;;
39102;SDS011;24847;48.218;16.414;2023-02-28T01:55:07;11.00;;;6.65;;
39102;SDS011;24847;48.218;16.414;2023-02-28T02:00:14;9.77;;;6.68;;
39102;SDS011;24847;48.218;16.414;2023-02-28T02:05:20;11.48;;;7.03;;
39102;SDS011;24847;48.218;16.414;2023-02-28T02:10:25;10.13;;;6.70;;
39102;SDS011;24847;48.218;16.414;2023-02-28T02:15:35;9.13;;;6.78;;
39102;SDS011;24847;48.218;16.414;2023-02-28T02:20:55;9.82;;;6.60;;
39102;SDS011;24847;48.218;16.414;2023-02-28T02:26:44;10.85;;;7.22;;
39102;SDS011;24847;48.218;16.414;2023-02-28T02:32:24;10.73;;;7.20;;
39102;SDS011;24847;48.218;16.414;2023-02-28T02:37:49;11.30;;;6.78;;
39102;SDS011;24847;48.218;16.414;2023-02-28T02:42:59;11.30;;;6.63;;
39102;SDS011;24847;48.218;16.414;2023-02-28T02:48:09;10.57;;;6.57;;
39102;SDS011;24847;48.218;16.414;2023-02-28T02:53:17;9.88;;;6.85;;
39102;SDS011;24847;48.218;16.414;2023-02-28T02:58:24;10.00;;;6.88;;
39102;SDS011;24847;48.218;16.414;2023-02-28T03:03:30;9.63;;;6.93;;
39102;SDS011;24847;48.218;16.414;2023-02-28T03:08:36;8.52;;;6.43;;
39102;SDS011;24847;48.218;16.414;2023-02-28T03:13:54;9.30;;;6.65;;
39102;SDS011;24847;48.218;16.414;2023-02-28T03:19:22;9.07;;;6.05;;
39102;SDS011;24847;48.218;16.414;2023-02-28T03:24:38;8.90;;;6.25;;
39102;SDS011;24847;48.218;16.414;2023-02-28T03:29:47;8.82;;;6.00;;
39102;SDS011;24847;48.218;16.414;2023-02-28T03:34:55;9.57;;;7.10;;
39102;SDS011;24847;48.218;16.414;2023-02-28T03:40:06;9.57;;;6.47;;
39102;SDS011;24847;48.218;16.414;2023-02-28T03:45:14;9.68;;;6.75;;
39102;SDS011;24847;48.218;16.414;2023-02-28T03:50:21;9.82;;;6.90;;
39102;SDS011;24847;48.218;16.414;2023-02-28T03:55:27;10.50;;;6.93;;
39102;SDS011;24847;48.218;16.414;2023-02-28T04:00:36;8.63;;;6.55;;
39102;SDS011;24847;48.218;16.414;2023-02-28T04:05:50;9.40;;;6.80;;
39102;SDS011;24847;48.218;16.414;2023-02-28T04:10:57;10.38;;;6.47;;
39102;SDS011;24847;48.218;16.414;2023-02-28T04:16:06;9.02;;;6.43;;
39102;SDS011;24847;48.218;16.414;2023-02-28T04:21:12;10.48;;;6.93;;
39102;SDS011;24847;48.218;16.414;2023-02-28T04:26:16;12.38;;;8.20;;
39102;SDS011;24847;48.218;16.414;2023-02-28T04:31:18;13.57;;;8.93;;
39102;SDS011;24847;48.218;16.414;2023-02-28T04:36:20;10.88;;;6.90;;
39102;SDS011;24847;48.218;16.414;2023-02-28T04:41:24;9.80;;;6.95;;
39102;SDS011;24847;48.218;16.414;2023-02-28T04:46:26;10.82;;;7.32;;
39102;SDS011;24847;48.218;16.414;2023-02-28T04:51:29;11.07;;;6.57;;
39102;SDS011;24847;48.218;16.414;2023-02-28T04:56:33;9.85;;;6.95;;
39102;SDS011;24847;48.218;16.414;2023-02-28T05:01:35;10.32;;;7.40;;
39102;SDS011;24847;48.218;16.414;2023-02-28T05:06:38;12.40;;;6.82;;
39102;SDS011;24847;48.218;16.414;2023-02-28T05:11:42;10.82;;;6.93;;
39102;SDS011;24847;48.218;16.414;2023-02-28T05:16:46;10.52;;;7.20;;
39102;SDS011;24847;48.218;16.414;2023-02-28T05:21:50;9.68;;;7.03;;
39102;SDS011;24847;48.218;16.414;2023-02-28T05:26:55;12.05;;;7.10;;
39102;SDS011;24847;48.218;16.414;2023-02-28T05:31:58;10.85;;;7.13;;
39102;SDS011;24847;48.218;16.414;2023-02-28T05:37:02;10.07;;;7.13;;
39102;SDS011;24847;48.218;16.414;2023-02-28T05:42:05;13.50;;;7.63;;
39102;SDS011;24847;48.218;16.414;2023-02-28T05:47:09;11.25;;;7.97;;
39102;SDS011;24847;48.218;16.414;2023-02-28T05:52:14;13.00;;;7.80;;
39102;SDS011;24847;48.218;16.414;2023-02-28T05:57:17;10.63;;;7.20;;
39102;SDS011;24847;48.218;16.414;2023-02-28T06:02:20;9.85;;;7.18;;
39102;SDS011;24847;48.218;16.414;2023-02-28T06:07:22;11.13;;;7.20;;
39102;SDS011;24847;48.218;16.414;2023-02-28T06:12:26;11.85;;;7.57;;
39102;SDS011;24847;48.218;16.414;2023-02-28T06:17:28;10.73;;;7.18;;
39102;SDS011;24847;48.218;16.414;2023-02-28T06:22:30;10.73;;;7.70;;
39102;SDS011;24847;48.218;16.414;2023-02-28T06:27:34;10.80;;;7.63;;
39102;SDS011;24847;48.218;16.414;2023-02-28T06:32:36;12.82;;;8.25;;
39102;SDS011;24847;48.218;16.414;2023-02-28T06:37:39;9.10;;;7.22;;
39102;SDS011;24847;48.218;16.414;2023-02-28T06:42:43;12.40;;;7.90;;
39102;SDS011;24847;48.218;16.414;2023-02-28T06:47:45;13.48;;;7.90;;
39102;SDS011;24847;48.218;16.414;2023-02-28T06:52:52;12.07;;;8.18;;
39102;SDS011;24847;48.218;16.414;2023-02-28T06:57:57;12.80;;;7.93;;
39102;SDS011;24847;48.218;16.414;2023-02-28T07:02:59;13.50;;;7.90;;
39102;SDS011;24847;48.218;16.414;2023-02-28T07:08:02;10.68;;;8.10;;
39102;SDS011;24847;48.218;16.414;2023-02-28T07:13:07;11.90;;;8.25;;
39102;SDS011;24847;48.218;16.414;2023-02-28T07:18:10;11.50;;;7.90;;
39102;SDS011;24847;48.218;16.414;2023-02-28T07:23:12;11.68;;;7.88;;
39102;SDS011;24847;48.218;16.414;2023-02-28T07:28:16;12.55;;;8.48;;
39102;SDS011;24847;48.218;16.414;2023-02-28T07:33:18;11.45;;;7.85;;
39102;SDS011;24847;48.218;16.414;2023-02-28T07:38:21;13.23;;;8.10;;
39102;SDS011;24847;48.218;16.414;2023-02-28T07:43:24;12.85;;;8.68;;
39102;SDS011;24847;48.218;16.414;2023-02-28T07:48:26;12.75;;;9.25;;
39102;SDS011;24847;48.218;16.414;2023-02-28T07:53:29;12.30;;;8.98;;
39102;SDS011;24847;48.218;16.414;2023-02-28T07:58:33;13.25;;;9.45;;
39102;SDS011;24847;48.218;16.414;2023-02-28T08:03:35;11.32;;;8.85;;
39102;SDS011;24847;48.218;16.414;2023-02-28T08:08:39;14.40;;;8.88;;
39102;SDS011;24847;48.218;16.414;2023-02-28T08:13:42;13.23;;;9.05;;
39102;SDS011;24847;48.218;16.414;2023-02-28T08:18:45;11.00;;;8.80;;
39102;SDS011;24847;48.218;16.414;2023-02-28T08:23:48;14.15;;;8.88;;
39102;SDS011;24847;48.218;16.414;2023-02-28T08:28:52;11.55;;;9.00;;
39102;SDS011;24847;48.218;16.414;2023-02-28T08:33:55;11.15;;;8.57;;
39102;SDS011;24847;48.218;16.414;2023-02-28T08:38:59;13.02;;;9.18;;
39102;SDS011;24847;48.218;16.414;2023-02-28T08:44:02;14.75;;;8.52;;
39102;SDS011;24847;48.218;16.414;2023-02-28T08:49:05;13.88;;;8.93;;
39102;SDS011;24847;48.218;16.414;2023-02-28T08:54:09;13.20;;;8.98;;
39102;SDS011;24847;48.218;16.414;2023-02-28T08:59:14;12.65;;;9.40;;
39102;SDS011;24847;48.218;16.414;2023-02-28T09:04:17;11.20;;;8.43;;
39102;SDS011;24847;48.218;16.414;2023-02-28T09:09:19;11.80;;;8.82;;
39102;SDS011;24847;48.218;16.414;2023-02-28T09:14:23;11.20;;;9.10;;
39102;SDS011;24847;48.218;16.414;2023-02-28T09:19:25;11.55;;;8.73;;
39102;SDS011;24847;48.218;16.414;2023-02-28T09:24:27;13.55;;;8.57;;
39102;SDS011;24847;48.218;16.414;2023-02-28T09:29:33;12.35;;;9.20;;
39102;SDS011;24847;48.218;16.414;2023-02-28T09:34:36;11.85;;;8.90;;
39102;SDS011;24847;48.218;16.414;2023-02-28T09:39:38;11.55;;;9.95;;
39102;SDS011;24847;48.218;16.414;2023-02-28T09:44:43;12.88;;;9.55;;
39102;SDS011;24847;48.218;16.414;2023-02-28T09:49:48;13.43;;;9.25;;
39102;SDS011;24847;48.218;16.414;2023-02-28T09:54:50;12.13;;;8.95;;
39102;SDS011;24847;48.218;16.414;2023-02-28T10:00:02;13.50;;;9.32;;
39102;SDS011;24847;48.218;16.414;2023-02-28T10:05:13;11.95;;;9.05;;
39102;SDS011;24847;48.218;16.414;2023-02-28T10:10:20;9.60;;;8.30;;
39102;SDS011;24847;48.218;16.414;2023-02-28T10:15:29;9.45;;;7.97;;
39102;SDS011;24847;48.218;16.414;2023-02-28T10:20:34;10.63;;;8.50;;
39102;SDS011;24847;48.218;16.414;2023-02-28T10:25:42;10.50;;;8.20;;
39102;SDS011;24847;48.218;16.414;2023-02-28T10:30:53;9.80;;;7.73;;
39102;SDS011;24847;48.218;16.414;2023-02-28T10:35:56;11.75;;;8.32;;
39102;SDS011;24847;48.218;16.414;2023-02-28T10:41:03;10.55;;;8.10;;
39102;SDS011;24847;48.218;16.414;2023-02-28T10:46:13;9.30;;;7.93;;
39102;SDS011;24847;48.218;16.414;2023-02-28T10:51:25;8.85;;;7.82;;
39102;SDS011;24847;48.218;16.414;2023-02-28T10:56:38;9.23;;;7.90;;
39102;SDS011;24847;48.218;16.414;2023-02-28T11:01:42;9.38;;;7.88;;
39102;SDS011;24847;48.218;16.414;2023-02-28T11:06:56;10.52;;;7.80;;
39102;SDS011;24847;48.218;16.414;2023-02-28T11:12:00;8.93;;;8.02;;
39102;SDS011;24847;48.218;16.414;2023-02-28T11:17:13;9.15;;;7.57;;
39102;SDS011;24847;48.218;16.414;2023-02-28T11:22:22;8.75;;;7.60;;
39102;SDS011;24847;48.218;16.414;2023-02-28T11:33:10;11.68;;;7.72;;
39102;SDS011;24847;48.218;16.414;2023-02-28T11:38:23;8.77;;;7.68;;
39102;SDS011;24847;48.218;16.414;2023-02-28T11:43:30;9.73;;;8.00;;
39102;SDS011;24847;48.218;16.414;2023-02-28T11:48:48;8.95;;;7.93;;
39102;SDS011;24847;48.218;16.414;2023-02-28T11:54:11;9.40;;;8.45;;
39102;SDS011;24847;48.218;16.414;2023-02-28T11:59:35;9.45;;;7.85;;
39102;SDS011;24847;48.218;16.414;2023-02-28T12:04:53;9.90;;;8.63;;
39102;SDS011;24847;48.218;16.414;2023-02-28T12:10:22;10.13;;;7.72;;
39102;SDS011;24847;48.218;16.414;2023-02-28T12:21:17;8.68;;;7.70;;
39102;SDS011;24847;48.218;16.414;2023-02-28T12:32:21;9.32;;;7.60;;
39102;SDS011;24847;48.218;16.414;2023-02-28T12:37:31;8.30;;;7.43;;
39102;SDS011;24847;48.218;16.414;2023-02-28T12:42:41;7.80;;;6.97;;
39102;SDS011;24847;48.218;16.414;2023-02-28T12:47:49;9.68;;;8.68;;
39102;SDS011;24847;48.218;16.414;2023-02-28T12:53:00;8.80;;;7.13;;
39102;SDS011;24847;48.218;16.414;2023-02-28T12:58:09;9.77;;;7.07;;
39102;SDS011;24847;48.218;16.414;2023-02-28T13:03:32;8.57;;;7.50;;
39102;SDS011;24847;48.218;16.414;2023-02-28T13:09:03;8.85;;;7.28;;
39102;SDS011;24847;48.218;16.414;2023-02-28T13:14:19;7.53;;;6.73;;
39102;SDS011;24847;48.218;16.414;2023-02-28T13:19:26;7.45;;;5.90;;
39102;SDS011;24847;48.218;16.414;2023-02-28T13:24:45;9.35;;;7.03;;
39102;SDS011;24847;48.218;16.414;2023-02-28T13:29:51;7.95;;;6.38;;
39102;SDS011;24847;48.218;16.414;2023-02-28T13:35:13;6.90;;;6.20;;
39102;SDS011;24847;48.218;16.414;2023-02-28T13:40:39;6.95;;;5.60;;
39102;SDS011;24847;48.218;16.414;2023-02-28T13:45:44;7.78;;;6.10;;
39102;SDS011;24847;48.218;16.414;2023-02-28T13:51:35;8.77;;;6.80;;
39102;SDS011;24847;48.218;16.414;2023-02-28T13:56:44;6.68;;;5.82;;
39102;SDS011;24847;48.218;16.414;2023-02-28T14:01:57;6.50;;;5.70;;
39102;SDS011;24847;48.218;16.414;2023-02-28T14:07:28;8.10;;;6.45;;
39102;SDS011;24847;48.218;16.414;2023-02-28T14:18:05;7.25;;;6.50;;
39102;SDS011;24847;48.218;16.414;2023-02-28T14:23:23;6.75;;;6.07;;
39102;SDS011;24847;48.218;16.414;2023-02-28T14:28:47;6.82;;;5.93;;
39102;SDS011;24847;48.218;16.414;2023-02-28T14:34:04;7.78;;;5.78;;
39102;SDS011;24847;48.218;16.414;2023-02-28T14:39:23;7.57;;;6.63;;
39102;SDS011;24847;48.218;16.414;2023-02-28T14:44:29;7.57;;;6.78;;
39102;SDS011;24847;48.218;16.414;2023-02-28T14:49:32;7.65;;;6.28;;
39102;SDS011;24847;48.218;16.414;2023-02-28T14:54:38;9.13;;;6.15;;
39102;SDS011;24847;48.218;16.414;2023-02-28T14:59:42;7.05;;;5.82;;
39102;SDS011;24847;48.218;16.414;2023-02-28T15:04:52;8.27;;;6.18;;
39102;SDS011;24847;48.218;16.414;2023-02-28T15:10:10;6.82;;;6.10;;
39102;SDS011;24847;48.218;16.414;2023-02-28T15:15:20;7.85;;;6.50;;
39102;SDS011;24847;48.218;16.414;2023-02-28T15:20:23;9.13;;;6.38;;
39102;SDS011;24847;48.218;16.414;2023-02-28T15:25:27;8.13;;;6.38;;
39102;SDS011;24847;48.218;16.414;2023-02-28T15:30:31;8.95;;;6.68;;
39102;SDS011;24847;48.218;16.414;2023-02-28T15:35:34;7.78;;;6.50;;
39102;SDS011;24847;48.218;16.414;2023-02-28T15:40:37;7.07;;;5.53;;
39102;SDS011;24847;48.218;16.414;2023-02-28T15:45:46;6.70;;;5.65;;
39102;SDS011;24847;48.218;16.414;2023-02-28T15:50:51;6.78;;;6.10;;
39102;SDS011;24847;48.218;16.414;2023-02-28T15:56:00;6.82;;;6.07;;
39102;SDS011;24847;48.218;16.414;2023-02-28T16:01:07;7.70;;;6.07;;
39102;SDS011;24847;48.218;16.414;2023-02-28T16:11:43;11.00;;;6.78;;
39102;SDS011;24847;48.218;16.414;2023-02-28T16:16:50;7.57;;;6.30;;
39102;SDS011;24847;48.218;16.414;2023-02-28T16:21:55;8.98;;;6.93;;
39102;SDS011;24847;48.218;16.414;2023-02-28T16:26:57;7.70;;;6.57;;
39102;SDS011;24847;48.218;16.414;2023-02-28T16:32:04;7.50;;;6.43;;
39102;SDS011;24847;48.218;16.414;2023-02-28T16:37:09;8.88;;;7.05;;
39102;SDS011;24847;48.218;16.414;2023-02-28T16:42:15;8.35;;;6.60;;
39102;SDS011;24847;48.218;16.414;2023-02-28T16:47:26;8.00;;;6.85;;
39102;SDS011;24847;48.218;16.414;2023-02-28T16:52:31;9.00;;;7.50;;
39102;SDS011;24847;48.218;16.414;2023-02-28T16:57:34;9.75;;;7.43;;
39102;SDS011;24847;48.218;16.414;2023-02-28T17:02:38;11.23;;;7.07;;
39102;SDS011;24847;48.218;16.414;2023-02-28T17:07:41;10.85;;;7.47;;
39102;SDS011;24847;48.218;16.414;2023-02-28T17:12:44;7.47;;;6.68;;
39102;SDS011;24847;48.218;16.414;2023-02-28T17:17:48;8.18;;;6.97;;
39102;SDS011;24847;48.218;16.414;2023-02-28T17:22:51;7.88;;;6.50;;
39102;SDS011;24847;48.218;16.414;2023-02-28T17:27:55;17.98;;;12.35;;
39102;SDS011;24847;48.218;16.414;2023-02-28T17:32:59;10.05;;;8.40;;
39102;SDS011;24847;48.218;16.414;2023-02-28T17:38:02;8.63;;;6.88;;
39102;SDS011;24847;48.218;16.414;2023-02-28T17:43:05;9.95;;;7.60;;
39102;SDS011;24847;48.218;16.414;2023-02-28T17:48:13;10.65;;;7.95;;
39102;SDS011;24847;48.218;16.414;2023-02-28T17:53:17;11.73;;;6.93;;
39102;SDS011;24847;48.218;16.414;2023-02-28T17:58:23;8.95;;;6.85;;
39102;SDS011;24847;48.218;16.414;2023-02-28T18:03:27;7.25;;;6.38;;
39102;SDS011;24847;48.218;16.414;2023-02-28T18:08:31;9.65;;;6.63;;
39102;SDS011;24847;48.218;16.414;2023-02-28T18:13:37;7.45;;;5.95;;
39102;SDS011;24847;48.218;16.414;2023-02-28T18:18:44;9.27;;;6.38;;
39102;SDS011;24847;48.218;16.414;2023-02-28T18:23:48;8.07;;;6.00;;
39102;SDS011;24847;48.218;16.414;2023-02-28T18:28:52;8.52;;;6.18;;
39102;SDS011;24847;48.218;16.414;2023-02-28T18:33:59;8.43;;;5.70;;
39102;SDS011;24847;48.218;16.414;2023-02-28T18:39:02;8.55;;;6.55;;
39102;SDS011;24847;48.218;16.414;2023-02-28T18:44:06;7.60;;;5.82;;
39102;SDS011;24847;48.218;16.414;2023-02-28T18:49:11;8.48;;;5.78;;
39102;SDS011;24847;48.218;16.414;2023-02-28T18:54:15;7.45;;;5.93;;
39102;SDS011;24847;48.218;16.414;2023-02-28T18:59:18;9.55;;;6.20;;
39102;SDS011;24847;48.218;16.414;2023-02-28T19:04:27;8.43;;;6.47;;
39102;SDS011;24847;48.218;16.414;2023-02-28T19:09:33;9.63;;;7.00;;
39102;SDS011;24847;48.218;16.414;2023-02-28T19:14:37;9.48;;;7.55;;
39102;SDS011;24847;48.218;16.414;2023-02-28T19:19:43;8.60;;;7.30;;
39102;SDS011;24847;48.218;16.414;2023-02-28T19:24:46;9.88;;;6.72;;
39102;SDS011;24847;48.218;16.414;2023-02-28T19:29:53;9.68;;;7.13;;
39102;SDS011;24847;48.218;16.414;2023-02-28T19:35:00;9.98;;;7.20;;
39102;SDS011;24847;48.218;16.414;2023-02-28T19:40:05;11.15;;;7.60;;
39102;SDS011;24847;48.218;16.414;2023-02-28T19:45:10;12.18;;;7.95;;
39102;SDS011;24847;48.218;16.414;2023-02-28T19:50:16;9.45;;;7.35;;
39102;SDS011;24847;48.218;16.414;2023-02-28T19:55:22;10.07;;;7.72;;
39102;SDS011;24847;48.218;16.414;2023-02-28T20:00:26;10.88;;;7.63;;
39102;SDS011;24847;48.218;16.414;2023-02-28T20:05:31;9.60;;;7.30;;
39102;SDS011;24847;48.218;16.414;2023-02-28T20:10:34;10.60;;;7.68;;
39102;SDS011;24847;48.218;16.414;2023-02-28T20:15:37;9.90;;;7.43;;
39102;SDS011;24847;48.218;16.414;2023-02-28T20:20:42;10.95;;;7.85;;
39102;SDS011;24847;48.218;16.414;2023-02-28T20:25:46;11.82;;;8.32;;
39102;SDS011;24847;48.218;16.414;2023-02-28T20:30:51;11.57;;;8.10;;
39102;SDS011;24847;48.218;16.414;2023-02-28T20:36:00;13.75;;;8.40;;
39102;SDS011;24847;48.218;16.414;2023-02-28T20:41:05;11.32;;;8.93;;
39102;SDS011;24847;48.218;16.414;2023-02-28T20:46:08;11.82;;;8.70;;
39102;SDS011;24847;48.218;16.414;2023-02-28T20:51:12;26.55;;;16.00;;
39102;SDS011;24847;48.218;16.414;2023-02-28T20:56:16;16.73;;;10.70;;
39102;SDS011;24847;48.218;16.414;2023-02-28T21:01:23;15.10;;;10.30;;
39102;SDS011;24847;48.218;16.414;2023-02-28T21:06:30;13.45;;;10.25;;
39102;SDS011;24847;48.218;16.414;2023-02-28T21:11:36;12.90;;;10.10;;
39102;SDS011;24847;48.218;16.414;2023-02-28T21:16:41;14.20;;;10.52;;
39102;SDS011;24847;48.218;16.414;2023-02-28T21:21:45;15.75;;;11.25;;
39102;SDS011;24847;48.218;16.414;2023-02-28T21:26:48;14.30;;;10.70;;
39102;SDS011;24847;48.218;16.414;2023-02-28T21:31:52;17.33;;;11.10;;
39102;SDS011;24847;48.218;16.414;2023-02-28T21:36:56;13.90;;;10.65;;
39102;SDS011;24847;48.218;16.414;2023-02-28T21:41:59;13.77;;;10.45;;
39102;SDS011;24847;48.218;16.414;2023-02-28T21:47:02;15.40;;;11.20;;
39102;SDS011;24847;48.218;16.414;2023-02-28T21:52:06;14.27;;;10.65;;
39102;SDS011;24847;48.218;16.414;2023-02-28T21:57:09;14.90;;;11.13;;
39102;SDS011;24847;48.218;16.414;2023-02-28T22:02:13;16.15;;;11.23;;
39102;SDS011;24847;48.218;16.414;2023-02-28T22:07:16;15.07;;;10.98;;
39102;SDS011;24847;48.218;16.414;2023-02-28T22:12:22;15.10;;;11.05;;
39102;SDS011;24847;48.218;16.414;2023-02-28T22:17:28;15.38;;;11.05;;
39102;SDS011;24847;48.218;16.414;2023-02-28T22:22:35;14.38;;;11.35;;
39102;SDS011;24847;48.218;16.414;2023-02-28T22:27:41;16.50;;;10.90;;
39102;SDS011;24847;48.218;16.414;2023-02-28T22:32:52;18.20;;;12.02;;
39102;SDS011;24847;48.218;16.414;2023-02-28T22:37:57;17.60;;;12.57;;
39102;SDS011;24847;48.218;16.414;2023-02-28T22:43:00;16.52;;;11.35;;
39102;SDS011;24847;48.218;16.414;2023-02-28T22:48:02;18.00;;;12.73;;
39102;SDS011;24847;48.218;16.414;2023-02-28T22:53:11;18.75;;;12.48;;
39102;SDS011;24847;48.218;16.414;2023-02-28T22:58:13;19.10;;;13.48;;
39102;SDS011;24847;48.218;16.414;2023-02-28T23:03:18;17.30;;;13.32;;
39102;SDS011;24847;48.218;16.414;2023-02-28T23:08:22;19.10;;;14.02;;
39102;SDS011;24847;48.218;16.414;2023-02-28T23:13:24;17.27;;;12.98;;
39102;SDS011;24847;48.218;16.414;2023-02-28T23:18:26;17.40;;;12.93;;
39102;SDS011;24847;48.218;16.414;2023-02-28T23:23:30;18.30;;;13.05;;
39102;SDS011;24847;48.218;16.414;2023-02-28T23:28:34;17.20;;;12.80;;
39102;SDS011;24847;48.218;16.414;2023-02-28T23:33:36;19.25;;;13.48;;
39102;SDS011;24847;48.218;16.414;2023-02-28T23:38:41;18.27;;;13.70;;
39102;SDS011;24847;48.218;16.414;2023-02-28T23:48:55;16.88;;;12.63;;
39102;SDS011;24847;48.218;16.414;2023-02-28T23:54:03;19.40;;;13.03;;
39102;SDS011;24847;48.218;16.414;2023-02-28T23:59:06;19.52;;;13.50;;
